Terminal Aerodrome Forecast
Issued by NWS

Home | Current Version | Previous Version | Text Only | Print | Product List | Glossary On
Versions: 1 2 3 4 5 6 7 8 9 10 11 12 13 14 15 16 17 18
000
FTUS42 KMLB 301140
TAFSUA
TAF
KSUA 301140Z 3012/0112 25004KT P6SM SCT020 BKN250
     FM301400 29005KT P6SM SCT025 SCT150 BKN250
     FM301800 07008KT P6SM SCT025 BKN120 BKN200
     FM010300 18005KT P6SM FEW020 BKN200=

USA.gov is the U.S. government's official web portal to all federal, state and local government web resources and services.